createdAt,value
2023-11-03T00:01:21.542Z,3.30
2023-11-03T00:03:49.335Z,4.40
2023-11-03T00:06:17.117Z,3.85
2023-11-03T00:08:44.690Z,3.53
2023-11-03T00:11:12.401Z,3.55
2023-11-03T00:13:40.661Z,3.58
2023-11-03T00:16:09.588Z,3.08
2023-11-03T00:18:37.418Z,3.90
2023-11-03T00:21:05.006Z,3.92
2023-11-03T00:23:32.877Z,3.50
2023-11-03T00:26:00.610Z,3.42
2023-11-03T00:28:28.276Z,3.50
2023-11-03T00:30:55.769Z,3.60
2023-11-03T00:33:23.560Z,3.58
2023-11-03T00:35:51.621Z,3.78
2023-11-03T00:38:19.647Z,3.58
2023-11-03T00:40:47.313Z,4.00
2023-11-03T00:43:15.241Z,3.85
2023-11-03T00:45:42.705Z,3.42
2023-11-03T00:48:10.481Z,3.50
2023-11-03T00:50:38.087Z,3.37
2023-11-03T00:53:05.482Z,3.78
2023-11-03T00:55:33.207Z,3.00
2023-11-03T00:58:01.093Z,3.83
2023-11-03T01:00:29.370Z,3.42
2023-11-03T01:02:57.187Z,4.50
2023-11-03T01:05:26.081Z,3.80
2023-11-03T01:07:54.038Z,4.00
2023-11-03T01:10:23.793Z,4.00
2023-11-03T01:12:51.736Z,4.10
2023-11-03T01:15:21.974Z,3.70
2023-11-03T01:17:51.545Z,3.20
2023-11-03T01:20:29.135Z,4.03
2023-11-03T01:22:57.227Z,3.75
2023-11-03T01:25:25.713Z,4.60
2023-11-03T01:27:53.464Z,4.00
2023-11-03T01:30:21.918Z,3.60
2023-11-03T01:32:54.063Z,3.67
2023-11-03T01:35:22.814Z,3.17
2023-11-03T01:37:50.362Z,3.85
2023-11-03T01:40:18.064Z,3.65
2023-11-03T01:42:45.834Z,2.90
2023-11-03T01:45:13.259Z,2.95
2023-11-03T01:47:40.715Z,3.17
2023-11-03T01:50:10.243Z,3.87
2023-11-03T01:52:39.788Z,3.62
2023-11-03T01:55:07.629Z,3.60
2023-11-03T01:57:35.745Z,3.83
2023-11-03T02:00:05.328Z,3.60
2023-11-03T02:02:33.839Z,3.17
2023-11-03T02:05:04.120Z,3.45
2023-11-03T02:07:31.621Z,3.35
2023-11-03T02:09:59.438Z,3.70
2023-11-03T02:12:27.620Z,3.20
2023-11-03T02:14:55.159Z,3.40
2023-11-03T02:17:24.376Z,3.58
2023-11-03T02:19:52.119Z,3.30
2023-11-03T02:22:19.573Z,3.40
2023-11-03T02:24:47.350Z,3.30
2023-11-03T02:27:14.762Z,3.15
2023-11-03T02:29:42.137Z,3.72
2023-11-03T02:32:11.217Z,3.58
2023-11-03T02:34:38.601Z,3.05
2023-11-03T02:37:06.196Z,3.53
2023-11-03T02:39:34.010Z,3.17
2023-11-03T02:42:01.373Z,3.92
2023-11-03T02:44:28.728Z,3.10
2023-11-03T02:46:56.469Z,2.90
2023-11-03T02:49:23.904Z,3.08
2023-11-03T02:51:52.132Z,3.15
2023-11-03T02:54:19.942Z,3.30
2023-11-03T02:56:47.352Z,3.15
2023-11-03T02:59:14.798Z,2.95
2023-11-03T03:01:42.513Z,2.92
2023-11-03T03:04:10.222Z,3.30
2023-11-03T03:06:37.728Z,3.12
2023-11-03T03:09:06.221Z,3.30
2023-11-03T03:11:33.618Z,2.90
2023-11-03T03:14:01.094Z,3.00
2023-11-03T03:16:28.731Z,3.17
2023-11-03T03:18:56.323Z,3.30
2023-11-03T03:21:24.627Z,2.83
2023-11-03T03:23:52.314Z,2.90
2023-11-03T03:26:19.735Z,2.67
2023-11-03T03:28:47.372Z,3.03
2023-11-03T03:31:15.123Z,2.85
2023-11-03T03:33:43.141Z,2.90
2023-11-03T03:36:11.039Z,3.03
2023-11-03T03:38:38.782Z,2.70
2023-11-03T03:41:12.190Z,2.90
2023-11-03T03:43:39.920Z,2.95
2023-11-03T03:46:07.806Z,2.87
2023-11-03T03:48:35.228Z,3.08
2023-11-03T03:51:03.000Z,3.05
2023-11-03T03:53:31.311Z,3.08
2023-11-03T03:55:59.970Z,2.67
2023-11-03T03:58:27.680Z,3.00
2023-11-03T04:00:55.164Z,3.22
2023-11-03T04:03:22.909Z,3.97
2023-11-03T04:05:50.350Z,2.65
2023-11-03T04:08:17.847Z,2.62
2023-11-03T04:10:45.530Z,3.12
2023-11-03T04:13:13.087Z,3.33
2023-11-03T04:15:40.499Z,2.80
2023-11-03T04:18:08.619Z,3.03
2023-11-03T04:20:36.069Z,2.90
2023-11-03T04:23:03.496Z,2.87
2023-11-03T04:25:31.177Z,2.70
2023-11-03T04:27:58.586Z,2.72
2023-11-03T04:30:25.976Z,2.60
2023-11-03T04:32:53.648Z,2.50
2023-11-03T04:35:21.071Z,3.20
2023-11-03T04:37:51.080Z,3.40
2023-11-03T04:40:22.337Z,2.95
2023-11-03T04:42:49.763Z,3.10
2023-11-03T04:45:17.601Z,2.70
2023-11-03T04:47:45.413Z,2.60
2023-11-03T04:50:12.999Z,2.87
2023-11-03T04:52:40.424Z,2.47
2023-11-03T04:55:09.840Z,3.12
2023-11-03T04:57:37.430Z,2.53
2023-11-03T05:00:10.477Z,2.95
2023-11-03T05:02:38.239Z,2.83
2023-11-03T05:05:06.460Z,3.15
2023-11-03T05:07:34.833Z,2.97
2023-11-03T05:10:02.715Z,2.60
2023-11-03T05:12:30.140Z,2.42
2023-11-03T05:14:57.715Z,2.83
2023-11-03T05:17:25.420Z,3.10
2023-11-03T05:19:52.835Z,2.60
2023-11-03T05:22:20.286Z,3.03
2023-11-03T05:24:47.984Z,2.53
2023-11-03T05:27:15.462Z,2.30
2023-11-03T05:29:42.877Z,2.92
2023-11-03T05:32:12.849Z,2.53
2023-11-03T05:34:41.676Z,3.17
2023-11-03T05:37:11.903Z,2.60
2023-11-03T05:39:39.552Z,2.70
2023-11-03T05:42:07.243Z,2.85
2023-11-03T05:44:34.891Z,2.50
2023-11-03T05:47:02.829Z,2.80
2023-11-03T05:49:30.299Z,2.17
2023-11-03T05:51:57.918Z,3.08
2023-11-03T05:54:25.685Z,2.87
2023-11-03T05:56:53.378Z,2.80
2023-11-03T05:59:20.939Z,2.45
2023-11-03T06:01:48.794Z,3.05
2023-11-03T06:04:16.481Z,2.90
2023-11-03T06:06:44.336Z,3.25
2023-11-03T06:09:15.850Z,2.55
2023-11-03T06:11:43.512Z,2.33
2023-11-03T06:14:11.976Z,2.80
2023-11-03T06:16:39.682Z,2.83
2023-11-03T06:19:07.427Z,2.85
2023-11-03T06:21:34.853Z,2.90
2023-11-03T06:24:02.662Z,2.50
2023-11-03T06:26:30.324Z,2.85
2023-11-03T06:28:57.944Z,2.97
2023-11-03T06:31:25.511Z,2.50
2023-11-03T06:33:53.330Z,2.90
2023-11-03T06:36:20.751Z,2.70
2023-11-03T06:38:48.311Z,2.30
2023-11-03T06:41:16.059Z,2.72
2023-11-03T06:43:46.559Z,2.97
2023-11-03T06:46:15.988Z,3.28
2023-11-03T06:48:44.402Z,2.72
2023-11-03T06:51:12.939Z,3.72
2023-11-03T06:53:40.743Z,2.62
2023-11-03T06:56:08.559Z,3.00
2023-11-03T06:58:36.329Z,3.20
2023-11-03T07:01:05.617Z,3.20
2023-11-03T07:03:33.857Z,2.50
2023-11-03T07:06:04.785Z,2.95
2023-11-03T07:08:32.478Z,2.78
2023-11-03T07:10:59.928Z,3.15
2023-11-03T07:13:29.663Z,3.05
2023-11-03T07:15:57.489Z,3.47
2023-11-03T07:18:24.921Z,3.08
2023-11-03T07:20:52.319Z,3.05
2023-11-03T07:23:22.677Z,2.97
2023-11-03T07:25:51.922Z,2.62
2023-11-03T07:28:19.757Z,2.95
2023-11-03T07:30:47.230Z,3.55
2023-11-03T07:33:14.753Z,3.08
2023-11-03T07:35:42.500Z,3.00
2023-11-03T07:38:10.153Z,3.42
2023-11-03T07:40:37.774Z,2.65
2023-11-03T07:43:07.096Z,3.40
2023-11-03T07:45:34.641Z,3.67
2023-11-03T07:48:02.636Z,2.78
2023-11-03T07:50:30.484Z,3.37
2023-11-03T07:52:58.038Z,3.30
2023-11-03T07:55:26.001Z,3.45
2023-11-03T07:57:54.273Z,3.50
2023-11-03T08:00:24.038Z,3.90
2023-11-03T08:02:52.100Z,3.90
2023-11-03T08:05:19.803Z,3.80
2023-11-03T08:07:47.306Z,3.58
2023-11-03T08:10:15.101Z,3.45
2023-11-03T08:12:42.476Z,3.92
2023-11-03T08:15:15.026Z,3.97
2023-11-03T08:17:44.976Z,4.10
2023-11-03T08:20:14.574Z,3.97
2023-11-03T08:22:46.087Z,4.15
2023-11-03T08:25:14.020Z,3.65
2023-11-03T08:27:41.580Z,4.60
2023-11-03T08:30:12.469Z,3.53
2023-11-03T08:32:40.199Z,3.65
2023-11-03T08:35:09.126Z,3.78
2023-11-03T08:37:36.573Z,3.65
2023-11-03T08:40:07.323Z,3.92
2023-11-03T08:42:35.550Z,3.90
2023-11-03T08:45:03.604Z,4.03
2023-11-03T08:47:32.666Z,3.78
2023-11-03T08:50:00.223Z,3.90
2023-11-03T08:52:27.980Z,4.07
2023-11-03T08:54:56.179Z,4.15
2023-11-03T08:57:24.257Z,4.78
2023-11-03T08:59:52.560Z,4.35
2023-11-03T09:02:21.295Z,5.20
2023-11-03T09:04:49.731Z,4.97
2023-11-03T09:07:17.811Z,4.60
2023-11-03T09:09:48.680Z,4.03
2023-11-03T09:12:25.672Z,4.68
2023-11-03T09:14:57.203Z,4.27
2023-11-03T09:17:25.463Z,4.37
2023-11-03T09:20:05.535Z,4.80
2023-11-03T09:22:38.871Z,4.10
2023-11-03T09:25:13.856Z,4.82
2023-11-03T09:27:43.243Z,4.57
2023-11-03T09:30:12.153Z,4.43
2023-11-03T09:32:43.755Z,4.85
2023-11-03T09:35:12.474Z,3.78
2023-11-03T09:37:43.399Z,4.75
2023-11-03T09:40:11.968Z,4.53
2023-11-03T09:42:43.075Z,4.20
2023-11-03T09:45:16.682Z,4.57
2023-11-03T09:47:46.717Z,4.10
2023-11-03T09:50:16.067Z,4.62
2023-11-03T09:52:51.009Z,4.45
2023-11-03T09:55:23.009Z,4.55
2023-11-03T09:58:02.662Z,4.87
2023-11-03T10:00:38.241Z,6.45
2023-11-03T10:03:07.093Z,4.62
2023-11-03T10:05:37.704Z,6.62
2023-11-03T10:08:15.457Z,6.15
2023-11-03T10:10:46.809Z,5.03
2023-11-03T10:13:17.192Z,4.80
2023-11-03T10:15:45.460Z,4.87
2023-11-03T10:18:14.015Z,5.12
2023-11-03T10:20:42.569Z,4.65
2023-11-03T10:23:10.729Z,4.72
2023-11-03T10:25:38.340Z,4.95
2023-11-03T10:28:08.648Z,4.57
2023-11-03T10:30:38.639Z,4.97
2023-11-03T10:33:07.168Z,4.00
2023-11-03T10:35:34.745Z,4.85
2023-11-03T10:38:04.056Z,5.32
2023-11-03T10:40:31.522Z,5.50
2023-11-03T10:43:02.110Z,4.72
2023-11-03T10:45:32.907Z,4.35
2023-11-03T10:48:28.100Z,4.05
2023-11-03T10:51:00.817Z,3.90
2023-11-03T10:53:39.216Z,3.87
2023-11-03T10:58:41.110Z,4.30
2023-11-03T11:01:18.161Z,4.47
2023-11-03T11:04:02.559Z,3.85
2023-11-03T11:06:33.064Z,4.50
2023-11-03T11:09:08.325Z,3.92
2023-11-03T11:11:38.862Z,4.30
2023-11-03T11:14:27.126Z,3.28
2023-11-03T11:16:59.839Z,2.75
2023-11-03T11:19:46.153Z,2.30
2023-11-03T11:22:15.958Z,2.50
2023-11-03T11:24:46.216Z,2.75
2023-11-03T11:27:23.452Z,2.40
2023-11-03T11:29:52.318Z,2.20
2023-11-03T11:32:26.818Z,2.12
2023-11-03T11:34:54.740Z,2.72
2023-11-03T11:37:27.024Z,2.58
2023-11-03T11:40:02.071Z,2.37
2023-11-03T11:42:37.087Z,2.17
2023-11-03T11:45:06.699Z,2.28
2023-11-03T11:47:47.590Z,2.37
2023-11-03T11:50:17.719Z,2.35
2023-11-03T11:52:50.751Z,2.00
2023-11-03T11:55:20.296Z,2.30
2023-11-03T11:58:03.724Z,1.90
2023-11-03T12:00:38.316Z,2.12
2023-11-03T12:03:23.937Z,1.85
2023-11-03T12:05:52.101Z,1.77
2023-11-03T12:08:19.808Z,1.80
2023-11-03T12:10:51.202Z,1.50
2023-11-03T12:13:19.016Z,1.93
2023-11-03T12:15:48.309Z,1.62
2023-11-03T12:18:17.685Z,1.58
2023-11-03T12:21:00.655Z,2.00
2023-11-03T12:23:30.086Z,1.73
2023-11-03T12:26:08.912Z,1.90
2023-11-03T12:28:36.657Z,1.30
2023-11-03T12:31:07.853Z,2.00
2023-11-03T12:33:52.276Z,1.20
2023-11-03T12:36:20.010Z,1.87
2023-11-03T12:38:48.109Z,1.92
2023-11-03T12:41:17.994Z,1.50
2023-11-03T12:43:50.413Z,1.75
2023-11-03T12:46:18.128Z,2.00
2023-11-03T12:48:45.861Z,1.50
2023-11-03T12:51:14.290Z,1.30
2023-11-03T12:53:49.131Z,1.10
2023-11-03T12:56:20.460Z,1.30
2023-11-03T12:58:48.664Z,1.33
2023-11-03T13:01:19.089Z,2.22
2023-11-03T13:03:49.120Z,1.65
2023-11-03T13:06:18.947Z,2.00
2023-11-03T13:08:46.789Z,2.67
2023-11-03T13:11:14.332Z,2.35
2023-11-03T13:13:41.817Z,2.40
2023-11-03T13:16:09.661Z,5.55
2023-11-03T13:18:37.263Z,1.95
2023-11-03T13:21:06.093Z,2.62
2023-11-03T13:23:33.816Z,1.70
2023-11-03T13:26:01.243Z,1.25
2023-11-03T13:28:30.918Z,1.08
2023-11-03T13:31:00.716Z,5.00
2023-11-03T13:33:41.168Z,3.42
2023-11-03T13:36:13.129Z,6.03
2023-11-03T13:38:55.042Z,1.50
2023-11-03T13:41:22.871Z,1.50
2023-11-03T13:43:50.222Z,4.82
2023-11-03T13:46:22.009Z,3.22
2023-11-03T13:48:50.004Z,3.97
2023-11-03T13:51:17.569Z,6.37
2023-11-03T13:53:45.342Z,5.03
2023-11-03T13:56:13.060Z,2.50
2023-11-03T13:58:43.200Z,4.05
2023-11-03T14:01:10.687Z,1.83
2023-11-03T14:03:38.518Z,1.48
2023-11-03T14:06:09.751Z,2.10
2023-11-03T14:08:37.509Z,11.65
2023-11-03T14:11:06.149Z,5.12
2023-11-03T14:13:33.632Z,4.95
2023-11-03T14:16:04.308Z,10.63
2023-11-03T14:18:34.277Z,4.45
2023-11-03T14:21:04.834Z,12.35
2023-11-03T14:23:32.530Z,4.45
2023-11-03T14:25:59.945Z,2.10
2023-11-03T14:28:27.463Z,7.28
2023-11-03T14:30:55.258Z,6.47
2023-11-03T14:33:25.754Z,5.75
2023-11-03T14:35:54.116Z,4.28
2023-11-03T14:38:22.074Z,9.40
2023-11-03T14:40:57.297Z,7.53
2023-11-03T14:43:25.022Z,8.68
2023-11-03T14:45:54.549Z,4.32
2023-11-03T14:48:24.754Z,10.45
2023-11-03T14:50:55.521Z,16.80
2023-11-03T14:53:23.036Z,5.32
2023-11-03T14:55:53.647Z,8.73
2023-11-03T15:00:48.825Z,5.07
2023-11-03T15:05:44.050Z,3.03
2023-11-03T15:08:11.424Z,2.80
2023-11-03T15:10:38.842Z,4.03
2023-11-03T15:13:06.560Z,2.72
2023-11-03T15:15:38.563Z,7.70
2023-11-03T15:18:09.167Z,2.58
2023-11-03T15:20:37.207Z,2.35
2023-11-03T15:23:04.754Z,2.40
2023-11-03T15:25:32.456Z,6.95
2023-11-03T15:27:59.999Z,7.70
2023-11-03T15:30:29.734Z,5.37
2023-11-03T15:32:57.506Z,1.80
2023-11-03T15:35:26.929Z,2.00
2023-11-03T15:37:54.815Z,1.50
2023-11-03T15:40:25.000Z,2.00
2023-11-03T15:42:52.588Z,1.50
2023-11-03T15:45:20.231Z,1.90
2023-11-03T15:47:49.342Z,1.92
2023-11-03T15:50:20.321Z,2.87
2023-11-03T15:52:49.780Z,3.83
2023-11-03T15:55:17.606Z,2.80
2023-11-03T15:57:48.320Z,3.03
2023-11-03T16:00:16.083Z,2.17
2023-11-03T16:02:45.161Z,1.75
2023-11-03T16:05:14.056Z,1.40
2023-11-03T16:07:45.015Z,2.00
2023-11-03T16:10:16.510Z,1.65
2023-11-03T16:12:45.377Z,2.05
2023-11-03T16:15:13.170Z,2.08
2023-11-03T16:17:41.895Z,4.12
2023-11-03T16:20:10.622Z,2.83
2023-11-03T16:22:38.501Z,2.60
2023-11-03T16:25:06.535Z,2.70
2023-11-03T16:27:34.026Z,2.33
2023-11-03T16:30:02.397Z,2.33
2023-11-03T16:32:30.838Z,2.35
2023-11-03T16:34:59.740Z,2.45
2023-11-03T16:37:27.657Z,2.60
2023-11-03T16:39:55.104Z,2.22
2023-11-03T16:42:23.417Z,2.10
2023-11-03T16:44:51.407Z,2.08
2023-11-03T16:47:19.499Z,2.42
2023-11-03T16:49:46.965Z,2.65
2023-11-03T16:52:14.737Z,2.03
2023-11-03T16:54:42.391Z,2.10
2023-11-03T16:57:09.826Z,1.90
2023-11-03T16:59:38.193Z,1.60
2023-11-03T17:02:05.974Z,1.62
2023-11-03T17:04:36.829Z,1.45
2023-11-03T17:07:06.501Z,1.70
2023-11-03T17:09:34.154Z,1.73
2023-11-03T17:12:01.887Z,1.85
2023-11-03T17:14:29.659Z,2.12
2023-11-03T17:16:57.397Z,1.60
2023-11-03T17:19:26.125Z,1.45
2023-11-03T17:21:53.894Z,1.75
2023-11-03T17:24:21.346Z,1.67
2023-11-03T17:26:52.172Z,1.50
2023-11-03T17:29:21.964Z,1.62
2023-11-03T17:31:49.715Z,1.60
2023-11-03T17:34:17.294Z,1.58
2023-11-03T17:36:45.020Z,1.30
2023-11-03T17:39:16.124Z,1.62
2023-11-03T17:41:44.486Z,1.50
2023-11-03T17:44:13.779Z,1.77
2023-11-03T17:46:42.531Z,1.10
2023-11-03T17:49:10.061Z,1.10
2023-11-03T17:51:40.730Z,1.15
2023-11-03T17:54:09.248Z,1.67
2023-11-03T17:56:41.918Z,1.80
2023-11-03T17:59:09.594Z,2.75
2023-11-03T18:01:37.093Z,1.42
2023-11-03T18:04:05.177Z,2.83
2023-11-03T18:06:32.880Z,1.27
2023-11-03T18:09:00.794Z,1.12
2023-11-03T18:11:29.307Z,0.90
2023-11-03T18:13:56.712Z,1.10
2023-11-03T18:16:26.576Z,1.08
2023-11-03T18:18:54.594Z,0.90
2023-11-03T18:21:23.246Z,0.93
2023-11-03T18:23:50.625Z,1.10
2023-11-03T18:26:18.338Z,1.42
2023-11-03T18:28:45.813Z,1.42
2023-11-03T18:31:15.284Z,1.35
2023-11-03T18:33:43.132Z,1.25
2023-11-03T18:36:13.177Z,2.47
2023-11-03T18:38:42.215Z,2.10
2023-11-03T18:41:09.856Z,1.73
2023-11-03T18:43:37.408Z,2.22
2023-11-03T18:46:04.912Z,2.00
2023-11-03T18:48:32.748Z,3.12
2023-11-03T18:57:09.379Z,3.55
2023-11-03T19:00:21.501Z,4.82
2023-11-03T19:02:18.500Z,5.12
2023-11-03T19:05:34.773Z,6.90
2023-11-03T19:07:34.521Z,8.35
2023-11-03T19:10:09.515Z,8.60
2023-11-03T19:12:37.240Z,8.10
2023-11-03T19:15:08.191Z,7.72
2023-11-03T19:17:38.788Z,6.82
2023-11-03T19:22:39.720Z,5.43
2023-11-03T19:25:07.916Z,8.85
2023-11-03T19:27:35.630Z,14.38
2023-11-03T19:30:03.941Z,15.23
2023-11-03T19:32:32.453Z,12.55
2023-11-03T19:35:01.307Z,11.40
2023-11-03T19:37:28.822Z,14.05
2023-11-03T19:39:57.074Z,13.88
2023-11-03T19:42:24.827Z,12.77
2023-11-03T19:44:52.630Z,10.20
2023-11-03T19:47:20.052Z,10.02
2023-11-03T19:49:47.891Z,9.50
2023-11-03T19:52:17.710Z,10.57
2023-11-03T19:54:45.506Z,10.50
2023-11-03T19:57:13.490Z,5.40
2023-11-03T19:59:40.934Z,3.78
2023-11-03T20:02:08.590Z,2.00
2023-11-03T20:04:37.367Z,2.67
2023-11-03T20:07:07.666Z,2.70
2023-11-03T20:09:36.136Z,2.78
2023-11-03T20:12:04.289Z,4.05
2023-11-03T20:14:31.719Z,3.87
2023-11-03T20:16:59.915Z,5.47
2023-11-03T20:19:27.832Z,5.18
2023-11-03T20:21:55.280Z,4.75
2023-11-03T20:24:22.978Z,3.58
2023-11-03T20:26:50.728Z,3.42
2023-11-03T20:29:18.203Z,3.08
2023-11-03T20:31:47.307Z,2.53
2023-11-03T20:34:15.154Z,2.55
2023-11-03T20:36:43.130Z,2.40
2023-11-03T20:39:13.409Z,2.00
2023-11-03T20:41:44.331Z,2.47
2023-11-03T20:44:12.003Z,3.10
2023-11-03T20:46:39.475Z,3.17
2023-11-03T20:49:07.322Z,3.33
2023-11-03T20:51:35.124Z,2.87
2023-11-03T20:54:02.585Z,3.42
2023-11-03T20:56:30.303Z,2.90
2023-11-03T20:58:59.326Z,4.03
2023-11-03T21:01:28.158Z,2.95
2023-11-03T21:03:55.967Z,4.28
2023-11-03T21:06:25.544Z,4.95
2023-11-03T21:08:53.038Z,5.25
2023-11-03T21:11:20.749Z,3.35
2023-11-03T21:13:48.363Z,3.17
2023-11-03T21:16:15.884Z,2.60
2023-11-03T21:18:43.689Z,2.72
2023-11-03T21:21:12.484Z,2.62
2023-11-03T21:23:40.934Z,2.65
2023-11-03T21:26:08.846Z,2.90
2023-11-03T21:28:37.858Z,3.28
2023-11-03T21:31:06.121Z,3.08
2023-11-03T21:33:34.152Z,2.70
2023-11-03T21:36:01.969Z,2.80
2023-11-03T21:38:32.545Z,3.80
2023-11-03T21:41:00.783Z,3.75
2023-11-03T21:43:28.485Z,2.90
2023-11-03T21:45:55.922Z,3.15
2023-11-03T21:48:23.753Z,3.00
2023-11-03T21:50:51.179Z,2.70
2023-11-03T21:53:18.606Z,4.37
2023-11-03T21:55:46.457Z,5.15
2023-11-03T21:58:14.218Z,5.25
2023-11-03T22:00:42.273Z,5.47
2023-11-03T22:03:10.145Z,3.75
2023-11-03T22:05:37.838Z,3.62
2023-11-03T22:08:05.761Z,3.55
2023-11-03T22:10:33.454Z,3.70
2023-11-03T22:13:00.916Z,4.30
2023-11-03T22:15:28.419Z,4.45
2023-11-03T22:17:57.946Z,4.97
2023-11-03T22:20:26.676Z,4.55
2023-11-03T22:22:54.492Z,5.57
2023-11-03T22:25:22.301Z,4.57
2023-11-03T22:27:49.979Z,4.37
2023-11-03T22:30:17.921Z,3.90
2023-11-03T22:32:46.551Z,3.80
2023-11-03T22:35:14.094Z,3.15
2023-11-03T22:37:41.504Z,3.00
2023-11-03T22:40:13.421Z,3.40
2023-11-03T22:42:40.933Z,3.22
2023-11-03T22:45:12.910Z,3.03
2023-11-03T22:47:42.899Z,3.22
2023-11-03T22:50:13.913Z,3.10
2023-11-03T22:52:42.345Z,2.50
2023-11-03T22:55:13.556Z,2.72
2023-11-03T22:57:42.193Z,2.03
2023-11-03T23:00:14.080Z,2.15
2023-11-03T23:05:09.670Z,1.87
2023-11-03T23:07:37.139Z,2.03
2023-11-03T23:10:05.212Z,1.65
2023-11-03T23:12:32.892Z,2.00
2023-11-03T23:15:00.375Z,2.00
2023-11-03T23:17:28.120Z,2.20
2023-11-03T23:19:55.647Z,2.40
2023-11-03T23:22:23.149Z,2.35
2023-11-03T23:24:50.933Z,3.00
2023-11-03T23:27:18.450Z,1.95
2023-11-03T23:29:46.126Z,2.12
2023-11-03T23:32:13.804Z,2.22
2023-11-03T23:34:41.344Z,1.80
2023-11-03T23:37:09.292Z,1.95
2023-11-03T23:39:38.145Z,1.87
2023-11-03T23:42:05.739Z,2.37
2023-11-03T23:44:33.548Z,2.30
2023-11-03T23:47:01.256Z,2.70
2023-11-03T23:49:28.798Z,2.40
2023-11-03T23:51:56.277Z,2.72
2023-11-03T23:54:24.015Z,2.75
2023-11-03T23:56:52.164Z,2.53
2023-11-03T23:59:19.768Z,2.47
